sensor_id;sensor_type;location;lat;lon;timestamp;P1;durP1;ratioP1;P2;durP2;ratioP2
76761;SDS011;65705;51.032;13.790;2023-03-01T00:03:29;30.55;;;13.90;;
76761;SDS011;65705;51.032;13.790;2023-03-01T00:05:57;31.80;;;14.20;;
76761;SDS011;65705;51.032;13.790;2023-03-01T00:08:24;27.92;;;14.02;;
76761;SDS011;65705;51.032;13.790;2023-03-01T00:10:59;27.40;;;13.25;;
76761;SDS011;65705;51.032;13.790;2023-03-01T00:13:46;22.75;;;12.65;;
76761;SDS011;65705;51.032;13.790;2023-03-01T00:16:46;30.33;;;14.70;;
76761;SDS011;65705;51.032;13.790;2023-03-01T00:19:07;27.02;;;13.02;;
76761;SDS011;65705;51.032;13.790;2023-03-01T00:21:35;31.45;;;12.82;;
76761;SDS011;65705;51.032;13.790;2023-03-01T00:24:00;26.30;;;12.90;;
76761;SDS011;65705;51.032;13.790;2023-03-01T00:26:27;28.50;;;14.07;;
76761;SDS011;65705;51.032;13.790;2023-03-01T00:28:54;28.33;;;13.07;;
76761;SDS011;65705;51.032;13.790;2023-03-01T00:31:24;30.10;;;13.70;;
76761;SDS011;65705;51.032;13.790;2023-03-01T00:33:54;26.15;;;13.23;;
76761;SDS011;65705;51.032;13.790;2023-03-01T00:36:25;29.67;;;14.57;;
76761;SDS011;65705;51.032;13.790;2023-03-01T00:38:52;27.95;;;14.27;;
76761;SDS011;65705;51.032;13.790;2023-03-01T00:41:19;27.02;;;12.77;;
76761;SDS011;65705;51.032;13.790;2023-03-01T00:43:45;25.88;;;14.20;;
76761;SDS011;65705;51.032;13.790;2023-03-01T00:46:15;30.30;;;14.45;;
76761;SDS011;65705;51.032;13.790;2023-03-01T00:48:44;31.17;;;13.50;;
76761;SDS011;65705;51.032;13.790;2023-03-01T00:51:14;29.08;;;12.85;;
76761;SDS011;65705;51.032;13.790;2023-03-01T00:53:42;27.25;;;14.60;;
76761;SDS011;65705;51.032;13.790;2023-03-01T00:56:09;32.47;;;14.10;;
76761;SDS011;65705;51.032;13.790;2023-03-01T00:58:36;30.60;;;14.07;;
76761;SDS011;65705;51.032;13.790;2023-03-01T01:01:09;28.27;;;13.38;;
76761;SDS011;65705;51.032;13.790;2023-03-01T01:06:28;27.52;;;12.23;;
76761;SDS011;65705;51.032;13.790;2023-03-01T01:08:56;26.95;;;12.48;;
76761;SDS011;65705;51.032;13.790;2023-03-01T01:11:22;29.85;;;14.40;;
76761;SDS011;65705;51.032;13.790;2023-03-01T01:13:51;29.50;;;13.75;;
76761;SDS011;65705;51.032;13.790;2023-03-01T01:16:17;28.23;;;13.35;;
76761;SDS011;65705;51.032;13.790;2023-03-01T01:18:44;29.35;;;14.20;;
76761;SDS011;65705;51.032;13.790;2023-03-01T01:21:11;26.08;;;11.50;;
76761;SDS011;65705;51.032;13.790;2023-03-01T01:23:39;25.35;;;11.98;;
76761;SDS011;65705;51.032;13.790;2023-03-01T01:26:10;30.88;;;14.32;;
76761;SDS011;65705;51.032;13.790;2023-03-01T01:28:41;26.70;;;12.65;;
76761;SDS011;65705;51.032;13.790;2023-03-01T01:31:07;25.25;;;13.02;;
76761;SDS011;65705;51.032;13.790;2023-03-01T01:33:33;23.80;;;12.10;;
76761;SDS011;65705;51.032;13.790;2023-03-01T01:35:59;27.67;;;12.43;;
76761;SDS011;65705;51.032;13.790;2023-03-01T01:38:25;24.60;;;11.52;;
76761;SDS011;65705;51.032;13.790;2023-03-01T01:40:51;24.83;;;11.40;;
76761;SDS011;65705;51.032;13.790;2023-03-01T01:43:24;27.35;;;12.25;;
76761;SDS011;65705;51.032;13.790;2023-03-01T01:45:55;27.88;;;11.95;;
76761;SDS011;65705;51.032;13.790;2023-03-01T01:48:26;27.88;;;12.02;;
76761;SDS011;65705;51.032;13.790;2023-03-01T01:51:18;26.20;;;12.30;;
76761;SDS011;65705;51.032;13.790;2023-03-01T01:53:45;25.98;;;13.23;;
76761;SDS011;65705;51.032;13.790;2023-03-01T01:56:16;27.73;;;12.50;;
76761;SDS011;65705;51.032;13.790;2023-03-01T01:58:44;26.02;;;11.95;;
76761;SDS011;65705;51.032;13.790;2023-03-01T02:01:12;27.63;;;12.95;;
76761;SDS011;65705;51.032;13.790;2023-03-01T02:03:38;28.10;;;13.23;;
76761;SDS011;65705;51.032;13.790;2023-03-01T02:08:56;31.55;;;12.98;;
76761;SDS011;65705;51.032;13.790;2023-03-01T02:11:24;25.63;;;12.52;;
76761;SDS011;65705;51.032;13.790;2023-03-01T02:13:51;31.10;;;13.98;;
76761;SDS011;65705;51.032;13.790;2023-03-01T02:16:18;27.48;;;13.27;;
76761;SDS011;65705;51.032;13.790;2023-03-01T02:18:44;28.00;;;12.55;;
76761;SDS011;65705;51.032;13.790;2023-03-01T02:23:56;29.25;;;13.85;;
76761;SDS011;65705;51.032;13.790;2023-03-01T02:26:33;27.15;;;11.95;;
76761;SDS011;65705;51.032;13.790;2023-03-01T02:29:03;26.85;;;12.18;;
76761;SDS011;65705;51.032;13.790;2023-03-01T02:31:30;27.15;;;12.45;;
76761;SDS011;65705;51.032;13.790;2023-03-01T02:34:14;29.02;;;13.43;;
76761;SDS011;65705;51.032;13.790;2023-03-01T02:36:44;27.15;;;13.27;;
76761;SDS011;65705;51.032;13.790;2023-03-01T02:39:17;26.73;;;12.38;;
76761;SDS011;65705;51.032;13.790;2023-03-01T02:41:48;27.33;;;12.55;;
76761;SDS011;65705;51.032;13.790;2023-03-01T02:44:16;31.48;;;13.35;;
76761;SDS011;65705;51.032;13.790;2023-03-01T02:46:44;23.42;;;12.27;;
76761;SDS011;65705;51.032;13.790;2023-03-01T02:49:19;28.98;;;14.52;;
76761;SDS011;65705;51.032;13.790;2023-03-01T02:51:48;29.63;;;13.00;;
76761;SDS011;65705;51.032;13.790;2023-03-01T02:56:55;27.65;;;13.57;;
76761;SDS011;65705;51.032;13.790;2023-03-01T02:59:22;28.92;;;11.80;;
76761;SDS011;65705;51.032;13.790;2023-03-01T03:01:52;31.33;;;13.75;;
76761;SDS011;65705;51.032;13.790;2023-03-01T03:04:18;26.73;;;12.55;;
76761;SDS011;65705;51.032;13.790;2023-03-01T03:06:48;30.08;;;12.45;;
76761;SDS011;65705;51.032;13.790;2023-03-01T03:09:16;28.15;;;12.18;;
76761;SDS011;65705;51.032;13.790;2023-03-01T03:11:44;28.85;;;13.45;;
76761;SDS011;65705;51.032;13.790;2023-03-01T03:14:10;25.83;;;11.63;;
76761;SDS011;65705;51.032;13.790;2023-03-01T03:16:41;27.13;;;13.65;;
76761;SDS011;65705;51.032;13.790;2023-03-01T03:19:07;23.65;;;11.60;;
76761;SDS011;65705;51.032;13.790;2023-03-01T03:21:33;25.58;;;12.98;;
76761;SDS011;65705;51.032;13.790;2023-03-01T03:23:59;29.65;;;13.52;;
76761;SDS011;65705;51.032;13.790;2023-03-01T03:26:25;27.05;;;11.98;;
76761;SDS011;65705;51.032;13.790;2023-03-01T03:28:51;31.15;;;13.18;;
76761;SDS011;65705;51.032;13.790;2023-03-01T03:31:16;24.73;;;12.98;;
76761;SDS011;65705;51.032;13.790;2023-03-01T03:33:42;27.52;;;12.05;;
76761;SDS011;65705;51.032;13.790;2023-03-01T03:36:08;29.45;;;11.77;;
76761;SDS011;65705;51.032;13.790;2023-03-01T03:38:40;26.90;;;12.23;;
76761;SDS011;65705;51.032;13.790;2023-03-01T03:41:07;28.73;;;13.73;;
76761;SDS011;65705;51.032;13.790;2023-03-01T03:43:34;25.50;;;13.30;;
76761;SDS011;65705;51.032;13.790;2023-03-01T03:46:01;27.10;;;12.50;;
76761;SDS011;65705;51.032;13.790;2023-03-01T03:48:35;28.08;;;12.75;;
76761;SDS011;65705;51.032;13.790;2023-03-01T03:51:05;26.33;;;12.48;;
76761;SDS011;65705;51.032;13.790;2023-03-01T03:53:32;25.85;;;13.23;;
76761;SDS011;65705;51.032;13.790;2023-03-01T03:55:58;27.17;;;13.50;;
76761;SDS011;65705;51.032;13.790;2023-03-01T03:58:24;28.10;;;12.07;;
76761;SDS011;65705;51.032;13.790;2023-03-01T04:00:52;26.10;;;12.75;;
76761;SDS011;65705;51.032;13.790;2023-03-01T04:03:23;26.75;;;11.30;;
76761;SDS011;65705;51.032;13.790;2023-03-01T04:05:51;29.08;;;11.48;;
76761;SDS011;65705;51.032;13.790;2023-03-01T04:08:18;27.25;;;12.85;;
76761;SDS011;65705;51.032;13.790;2023-03-01T04:10:48;28.17;;;12.15;;
76761;SDS011;65705;51.032;13.790;2023-03-01T04:13:17;28.40;;;12.43;;
76761;SDS011;65705;51.032;13.790;2023-03-01T04:15:50;27.38;;;13.00;;
76761;SDS011;65705;51.032;13.790;2023-03-01T04:18:17;27.20;;;13.40;;
76761;SDS011;65705;51.032;13.790;2023-03-01T04:20:44;23.30;;;11.70;;
76761;SDS011;65705;51.032;13.790;2023-03-01T04:23:12;23.63;;;12.52;;
76761;SDS011;65705;51.032;13.790;2023-03-01T04:26:01;28.75;;;13.48;;
76761;SDS011;65705;51.032;13.790;2023-03-01T04:28:27;23.52;;;11.98;;
76761;SDS011;65705;51.032;13.790;2023-03-01T04:31:08;29.42;;;13.02;;
76761;SDS011;65705;51.032;13.790;2023-03-01T04:33:50;25.23;;;11.65;;
76761;SDS011;65705;51.032;13.790;2023-03-01T04:36:18;26.58;;;11.60;;
76761;SDS011;65705;51.032;13.790;2023-03-01T04:38:45;29.52;;;12.65;;
76761;SDS011;65705;51.032;13.790;2023-03-01T04:41:13;27.17;;;11.00;;
76761;SDS011;65705;51.032;13.790;2023-03-01T04:43:39;28.83;;;12.68;;
76761;SDS011;65705;51.032;13.790;2023-03-01T04:46:07;22.02;;;11.18;;
76761;SDS011;65705;51.032;13.790;2023-03-01T04:48:39;22.27;;;11.27;;
76761;SDS011;65705;51.032;13.790;2023-03-01T04:51:07;22.02;;;11.10;;
76761;SDS011;65705;51.032;13.790;2023-03-01T04:53:34;26.75;;;11.77;;
76761;SDS011;65705;51.032;13.790;2023-03-01T04:56:01;26.58;;;12.02;;
76761;SDS011;65705;51.032;13.790;2023-03-01T04:58:27;26.83;;;11.00;;
76761;SDS011;65705;51.032;13.790;2023-03-01T05:00:54;25.48;;;12.20;;
76761;SDS011;65705;51.032;13.790;2023-03-01T05:03:20;23.52;;;10.55;;
76761;SDS011;65705;51.032;13.790;2023-03-01T05:05:47;24.80;;;11.13;;
76761;SDS011;65705;51.032;13.790;2023-03-01T05:08:14;23.92;;;11.93;;
76761;SDS011;65705;51.032;13.790;2023-03-01T05:10:44;26.92;;;11.98;;
76761;SDS011;65705;51.032;13.790;2023-03-01T05:13:14;26.92;;;12.40;;
76761;SDS011;65705;51.032;13.790;2023-03-01T05:15:56;26.33;;;11.43;;
76761;SDS011;65705;51.032;13.790;2023-03-01T05:18:23;29.08;;;12.43;;
76761;SDS011;65705;51.032;13.790;2023-03-01T05:20:53;28.30;;;12.77;;
76761;SDS011;65705;51.032;13.790;2023-03-01T05:23:22;28.05;;;12.55;;
76761;SDS011;65705;51.032;13.790;2023-03-01T05:25:48;27.23;;;12.07;;
76761;SDS011;65705;51.032;13.790;2023-03-01T05:28:14;28.60;;;12.23;;
76761;SDS011;65705;51.032;13.790;2023-03-01T05:30:40;27.30;;;12.35;;
76761;SDS011;65705;51.032;13.790;2023-03-01T05:33:06;24.05;;;11.85;;
76761;SDS011;65705;51.032;13.790;2023-03-01T05:35:42;21.08;;;10.48;;
76761;SDS011;65705;51.032;13.790;2023-03-01T05:38:09;25.77;;;11.27;;
76761;SDS011;65705;51.032;13.790;2023-03-01T05:40:39;26.65;;;12.32;;
76761;SDS011;65705;51.032;13.790;2023-03-01T05:43:06;26.48;;;11.90;;
76761;SDS011;65705;51.032;13.790;2023-03-01T05:45:32;23.60;;;11.15;;
76761;SDS011;65705;51.032;13.790;2023-03-01T05:48:00;28.92;;;11.85;;
76761;SDS011;65705;51.032;13.790;2023-03-01T05:50:27;24.80;;;11.95;;
76761;SDS011;65705;51.032;13.790;2023-03-01T05:55:24;26.80;;;12.13;;
76761;SDS011;65705;51.032;13.790;2023-03-01T05:57:50;27.77;;;12.07;;
76761;SDS011;65705;51.032;13.790;2023-03-01T06:00:17;24.70;;;12.13;;
76761;SDS011;65705;51.032;13.790;2023-03-01T06:02:45;28.35;;;13.13;;
76761;SDS011;65705;51.032;13.790;2023-03-01T06:05:11;27.73;;;11.40;;
76761;SDS011;65705;51.032;13.790;2023-03-01T06:07:38;25.88;;;11.48;;
76761;SDS011;65705;51.032;13.790;2023-03-01T06:10:04;24.02;;;11.80;;
76761;SDS011;65705;51.032;13.790;2023-03-01T06:12:31;27.73;;;12.60;;
76761;SDS011;65705;51.032;13.790;2023-03-01T06:14:59;31.55;;;13.60;;
76761;SDS011;65705;51.032;13.790;2023-03-01T06:17:25;28.70;;;12.02;;
76761;SDS011;65705;51.032;13.790;2023-03-01T06:19:51;24.70;;;11.65;;
76761;SDS011;65705;51.032;13.790;2023-03-01T06:22:16;29.27;;;10.40;;
76761;SDS011;65705;51.032;13.790;2023-03-01T06:24:42;26.27;;;11.63;;
76761;SDS011;65705;51.032;13.790;2023-03-01T06:27:08;26.05;;;11.23;;
76761;SDS011;65705;51.032;13.790;2023-03-01T06:29:33;22.02;;;11.27;;
76761;SDS011;65705;51.032;13.790;2023-03-01T06:31:59;25.92;;;12.00;;
76761;SDS011;65705;51.032;13.790;2023-03-01T06:34:25;27.60;;;12.32;;
76761;SDS011;65705;51.032;13.790;2023-03-01T06:36:51;25.52;;;11.52;;
76761;SDS011;65705;51.032;13.790;2023-03-01T06:39:16;24.75;;;11.77;;
76761;SDS011;65705;51.032;13.790;2023-03-01T06:41:43;28.90;;;11.38;;
76761;SDS011;65705;51.032;13.790;2023-03-01T06:44:09;30.05;;;11.32;;
76761;SDS011;65705;51.032;13.790;2023-03-01T06:46:35;24.20;;;11.75;;
76761;SDS011;65705;51.032;13.790;2023-03-01T06:49:00;26.92;;;11.55;;
76761;SDS011;65705;51.032;13.790;2023-03-01T06:51:26;23.20;;;11.48;;
76761;SDS011;65705;51.032;13.790;2023-03-01T06:53:52;28.67;;;12.70;;
76761;SDS011;65705;51.032;13.790;2023-03-01T06:56:17;29.33;;;12.45;;
76761;SDS011;65705;51.032;13.790;2023-03-01T06:58:43;27.13;;;11.77;;
76761;SDS011;65705;51.032;13.790;2023-03-01T07:01:09;28.17;;;12.57;;
76761;SDS011;65705;51.032;13.790;2023-03-01T07:03:35;27.88;;;12.57;;
76761;SDS011;65705;51.032;13.790;2023-03-01T07:06:00;28.95;;;13.60;;
76761;SDS011;65705;51.032;13.790;2023-03-01T07:08:26;26.23;;;12.57;;
76761;SDS011;65705;51.032;13.790;2023-03-01T07:10:58;29.98;;;12.48;;
76761;SDS011;65705;51.032;13.790;2023-03-01T07:13:24;28.13;;;12.02;;
76761;SDS011;65705;51.032;13.790;2023-03-01T07:15:50;32.78;;;13.43;;
76761;SDS011;65705;51.032;13.790;2023-03-01T07:18:16;26.92;;;12.43;;
76761;SDS011;65705;51.032;13.790;2023-03-01T07:20:41;28.10;;;12.48;;
76761;SDS011;65705;51.032;13.790;2023-03-01T07:23:07;27.75;;;11.73;;
76761;SDS011;65705;51.032;13.790;2023-03-01T07:25:33;30.13;;;12.65;;
76761;SDS011;65705;51.032;13.790;2023-03-01T07:27:58;26.65;;;14.10;;
76761;SDS011;65705;51.032;13.790;2023-03-01T07:30:24;25.92;;;12.18;;
76761;SDS011;65705;51.032;13.790;2023-03-01T07:32:57;24.13;;;11.30;;
76761;SDS011;65705;51.032;13.790;2023-03-01T07:35:24;26.38;;;12.23;;
76761;SDS011;65705;51.032;13.790;2023-03-01T07:37:52;26.42;;;12.90;;
76761;SDS011;65705;51.032;13.790;2023-03-01T07:40:18;27.77;;;13.30;;
76761;SDS011;65705;51.032;13.790;2023-03-01T07:42:44;27.38;;;12.70;;
76761;SDS011;65705;51.032;13.790;2023-03-01T07:45:11;35.35;;;14.57;;
76761;SDS011;65705;51.032;13.790;2023-03-01T07:47:36;27.25;;;11.73;;
76761;SDS011;65705;51.032;13.790;2023-03-01T07:50:03;32.08;;;12.98;;
76761;SDS011;65705;51.032;13.790;2023-03-01T07:52:29;30.85;;;12.93;;
76761;SDS011;65705;51.032;13.790;2023-03-01T07:54:56;27.88;;;12.15;;
76761;SDS011;65705;51.032;13.790;2023-03-01T07:57:22;28.52;;;12.77;;
76761;SDS011;65705;51.032;13.790;2023-03-01T07:59:48;28.70;;;12.88;;
76761;SDS011;65705;51.032;13.790;2023-03-01T08:02:13;27.85;;;12.05;;
76761;SDS011;65705;51.032;13.790;2023-03-01T08:04:40;31.33;;;13.63;;
76761;SDS011;65705;51.032;13.790;2023-03-01T08:07:07;31.48;;;14.90;;
76761;SDS011;65705;51.032;13.790;2023-03-01T08:09:36;26.45;;;12.73;;
76761;SDS011;65705;51.032;13.790;2023-03-01T08:12:03;29.08;;;13.75;;
76761;SDS011;65705;51.032;13.790;2023-03-01T08:14:30;28.77;;;12.85;;
76761;SDS011;65705;51.032;13.790;2023-03-01T08:16:59;28.80;;;13.75;;
76761;SDS011;65705;51.032;13.790;2023-03-01T08:19:25;33.47;;;14.30;;
76761;SDS011;65705;51.032;13.790;2023-03-01T08:21:50;34.78;;;14.90;;
76761;SDS011;65705;51.032;13.790;2023-03-01T08:24:16;31.65;;;13.77;;
76761;SDS011;65705;51.032;13.790;2023-03-01T08:26:42;29.17;;;13.65;;
76761;SDS011;65705;51.032;13.790;2023-03-01T08:29:07;28.40;;;13.07;;
76761;SDS011;65705;51.032;13.790;2023-03-01T08:31:34;25.58;;;11.70;;
76761;SDS011;65705;51.032;13.790;2023-03-01T08:34:05;32.38;;;13.13;;
76761;SDS011;65705;51.032;13.790;2023-03-01T08:36:35;26.58;;;12.93;;
76761;SDS011;65705;51.032;13.790;2023-03-01T08:39:03;33.40;;;13.32;;
76761;SDS011;65705;51.032;13.790;2023-03-01T08:41:29;31.23;;;14.57;;
76761;SDS011;65705;51.032;13.790;2023-03-01T08:43:55;28.42;;;14.38;;
76761;SDS011;65705;51.032;13.790;2023-03-01T08:46:25;28.83;;;14.13;;
76761;SDS011;65705;51.032;13.790;2023-03-01T08:48:54;27.33;;;13.52;;
76761;SDS011;65705;51.032;13.790;2023-03-01T08:51:20;28.70;;;13.38;;
76761;SDS011;65705;51.032;13.790;2023-03-01T08:53:47;29.65;;;13.38;;
76761;SDS011;65705;51.032;13.790;2023-03-01T08:56:13;30.45;;;13.43;;
76761;SDS011;65705;51.032;13.790;2023-03-01T08:58:39;30.67;;;13.52;;
76761;SDS011;65705;51.032;13.790;2023-03-01T09:01:09;28.35;;;13.60;;
76761;SDS011;65705;51.032;13.790;2023-03-01T09:03:36;34.05;;;13.75;;
76761;SDS011;65705;51.032;13.790;2023-03-01T09:06:02;31.52;;;13.82;;
76761;SDS011;65705;51.032;13.790;2023-03-01T09:08:30;33.78;;;15.18;;
76761;SDS011;65705;51.032;13.790;2023-03-01T09:11:00;30.88;;;15.73;;
76761;SDS011;65705;51.032;13.790;2023-03-01T09:13:27;32.70;;;14.25;;
76761;SDS011;65705;51.032;13.790;2023-03-01T09:15:56;30.27;;;14.10;;
76761;SDS011;65705;51.032;13.790;2023-03-01T09:18:23;27.25;;;13.85;;
76761;SDS011;65705;51.032;13.790;2023-03-01T09:20:49;29.08;;;13.77;;
76761;SDS011;65705;51.032;13.790;2023-03-01T09:23:14;35.40;;;14.52;;
76761;SDS011;65705;51.032;13.790;2023-03-01T09:25:40;32.25;;;14.07;;
76761;SDS011;65705;51.032;13.790;2023-03-01T09:28:06;27.10;;;13.60;;
76761;SDS011;65705;51.032;13.790;2023-03-01T09:30:31;32.63;;;14.65;;
76761;SDS011;65705;51.032;13.790;2023-03-01T09:32:57;33.08;;;14.07;;
76761;SDS011;65705;51.032;13.790;2023-03-01T09:35:23;32.30;;;14.43;;
76761;SDS011;65705;51.032;13.790;2023-03-01T09:37:48;30.38;;;14.38;;
76761;SDS011;65705;51.032;13.790;2023-03-01T09:40:19;31.55;;;14.23;;
76761;SDS011;65705;51.032;13.790;2023-03-01T09:45:32;31.45;;;14.02;;
76761;SDS011;65705;51.032;13.790;2023-03-01T09:48:00;32.42;;;15.70;;
76761;SDS011;65705;51.032;13.790;2023-03-01T09:50:32;30.33;;;14.30;;
76761;SDS011;65705;51.032;13.790;2023-03-01T09:53:05;34.85;;;14.45;;
76761;SDS011;65705;51.032;13.790;2023-03-01T09:55:43;30.67;;;13.63;;
76761;SDS011;65705;51.032;13.790;2023-03-01T10:01:43;32.95;;;14.07;;
76761;SDS011;65705;51.032;13.790;2023-03-01T10:10:36;36.35;;;14.13;;
76761;SDS011;65705;51.032;13.790;2023-03-01T10:13:05;27.65;;;13.10;;
76761;SDS011;65705;51.032;13.790;2023-03-01T10:15:44;35.72;;;15.13;;
76761;SDS011;65705;51.032;13.790;2023-03-01T10:18:18;29.17;;;13.70;;
76761;SDS011;65705;51.032;13.790;2023-03-01T10:20:50;32.03;;;15.45;;
76761;SDS011;65705;51.032;13.790;2023-03-01T10:23:18;33.00;;;13.98;;
76761;SDS011;65705;51.032;13.790;2023-03-01T10:25:47;36.03;;;14.68;;
76761;SDS011;65705;51.032;13.790;2023-03-01T10:31:24;31.40;;;14.48;;
76761;SDS011;65705;51.032;13.790;2023-03-01T10:33:54;32.30;;;14.05;;
76761;SDS011;65705;51.032;13.790;2023-03-01T10:36:24;32.13;;;15.10;;
76761;SDS011;65705;51.032;13.790;2023-03-01T10:38:51;31.77;;;15.23;;
76761;SDS011;65705;51.032;13.790;2023-03-01T10:41:20;28.13;;;13.98;;
76761;SDS011;65705;51.032;13.790;2023-03-01T10:43:54;30.20;;;14.57;;
76761;SDS011;65705;51.032;13.790;2023-03-01T10:46:32;31.75;;;14.70;;
76761;SDS011;65705;51.032;13.790;2023-03-01T10:51:46;30.42;;;13.55;;
76761;SDS011;65705;51.032;13.790;2023-03-01T10:54:25;28.92;;;14.15;;
76761;SDS011;65705;51.032;13.790;2023-03-01T10:57:22;27.13;;;13.07;;
76761;SDS011;65705;51.032;13.790;2023-03-01T11:00:00;30.50;;;13.65;;
76761;SDS011;65705;51.032;13.790;2023-03-01T11:02:40;33.05;;;14.45;;
76761;SDS011;65705;51.032;13.790;2023-03-01T11:10:20;26.83;;;12.98;;
76761;SDS011;65705;51.032;13.790;2023-03-01T11:12:48;25.35;;;13.25;;
76761;SDS011;65705;51.032;13.790;2023-03-01T11:15:20;23.55;;;12.32;;
76761;SDS011;65705;51.032;13.790;2023-03-01T11:17:54;26.00;;;13.18;;
76761;SDS011;65705;51.032;13.790;2023-03-01T11:20:36;25.83;;;13.13;;
76761;SDS011;65705;51.032;13.790;2023-03-01T11:23:04;27.17;;;13.45;;
76761;SDS011;65705;51.032;13.790;2023-03-01T11:25:36;31.02;;;12.50;;
76761;SDS011;65705;51.032;13.790;2023-03-01T11:28:09;27.25;;;12.00;;
76761;SDS011;65705;51.032;13.790;2023-03-01T11:30:40;25.20;;;11.73;;
76761;SDS011;65705;51.032;13.790;2023-03-01T11:39:17;23.52;;;10.10;;
76761;SDS011;65705;51.032;13.790;2023-03-01T11:41:44;28.05;;;11.63;;
76761;SDS011;65705;51.032;13.790;2023-03-01T11:44:22;20.70;;;10.27;;
76761;SDS011;65705;51.032;13.790;2023-03-01T12:01:08;16.27;;;8.82;;
76761;SDS011;65705;51.032;13.790;2023-03-01T12:09:04;28.85;;;8.77;;
76761;SDS011;65705;51.032;13.790;2023-03-01T12:36:37;25.85;;;11.95;;
76761;SDS011;65705;51.032;13.790;2023-03-01T12:41:47;27.58;;;12.70;;
76761;SDS011;65705;51.032;13.790;2023-03-01T12:47:11;27.52;;;11.73;;
76761;SDS011;65705;51.032;13.790;2023-03-01T12:49:58;29.10;;;12.98;;
76761;SDS011;65705;51.032;13.790;2023-03-01T12:52:52;28.85;;;13.15;;
76761;SDS011;65705;51.032;13.790;2023-03-01T12:58:04;25.48;;;12.23;;
76761;SDS011;65705;51.032;13.790;2023-03-01T13:09:19;22.83;;;12.23;;
76761;SDS011;65705;51.032;13.790;2023-03-01T13:11:52;26.40;;;12.68;;
76761;SDS011;65705;51.032;13.790;2023-03-01T13:16:48;25.55;;;10.55;;
76761;SDS011;65705;51.032;13.790;2023-03-01T13:21:46;28.77;;;12.40;;
76761;SDS011;65705;51.032;13.790;2023-03-01T13:24:34;25.02;;;11.90;;
76761;SDS011;65705;51.032;13.790;2023-03-01T13:32:26;26.77;;;12.05;;
76761;SDS011;65705;51.032;13.790;2023-03-01T13:34:54;27.08;;;11.93;;
76761;SDS011;65705;51.032;13.790;2023-03-01T13:37:23;21.83;;;10.35;;
76761;SDS011;65705;51.032;13.790;2023-03-01T13:39:55;22.50;;;10.35;;
76761;SDS011;65705;51.032;13.790;2023-03-01T13:45:03;27.65;;;12.73;;
76761;SDS011;65705;51.032;13.790;2023-03-01T13:47:38;23.95;;;12.35;;
76761;SDS011;65705;51.032;13.790;2023-03-01T13:50:04;22.25;;;11.27;;
76761;SDS011;65705;51.032;13.790;2023-03-01T13:52:35;24.63;;;12.18;;
76761;SDS011;65705;51.032;13.790;2023-03-01T13:57:47;24.38;;;12.18;;
76761;SDS011;65705;51.032;13.790;2023-03-01T14:05:41;26.10;;;11.65;;
76761;SDS011;65705;51.032;13.790;2023-03-01T14:08:29;24.20;;;11.20;;
76761;SDS011;65705;51.032;13.790;2023-03-01T14:16:18;23.85;;;12.20;;
76761;SDS011;65705;51.032;13.790;2023-03-01T14:21:43;25.38;;;12.48;;
76761;SDS011;65705;51.032;13.790;2023-03-01T14:24:16;23.20;;;11.15;;
76761;SDS011;65705;51.032;13.790;2023-03-01T14:26:43;22.80;;;11.20;;
76761;SDS011;65705;51.032;13.790;2023-03-01T14:32:22;21.13;;;10.57;;
76761;SDS011;65705;51.032;13.790;2023-03-01T14:34:51;24.80;;;11.25;;
76761;SDS011;65705;51.032;13.790;2023-03-01T14:37:30;22.98;;;10.77;;
76761;SDS011;65705;51.032;13.790;2023-03-01T14:39:59;25.65;;;10.55;;
76761;SDS011;65705;51.032;13.790;2023-03-01T14:42:27;23.95;;;12.18;;
76761;SDS011;65705;51.032;13.790;2023-03-01T14:44:56;21.77;;;10.85;;
76761;SDS011;65705;51.032;13.790;2023-03-01T14:47:29;23.35;;;11.20;;
76761;SDS011;65705;51.032;13.790;2023-03-01T14:50:19;23.90;;;11.23;;
76761;SDS011;65705;51.032;13.790;2023-03-01T14:52:44;23.67;;;10.95;;
76761;SDS011;65705;51.032;13.790;2023-03-01T14:57:44;23.42;;;12.00;;
76761;SDS011;65705;51.032;13.790;2023-03-01T15:00:17;21.20;;;10.73;;
76761;SDS011;65705;51.032;13.790;2023-03-01T15:02:53;27.23;;;11.68;;
76761;SDS011;65705;51.032;13.790;2023-03-01T15:05:27;24.52;;;11.57;;
76761;SDS011;65705;51.032;13.790;2023-03-01T15:07:58;27.02;;;13.65;;
76761;SDS011;65705;51.032;13.790;2023-03-01T15:10:27;30.83;;;12.23;;
76761;SDS011;65705;51.032;13.790;2023-03-01T15:12:54;25.27;;;10.95;;
76761;SDS011;65705;51.032;13.790;2023-03-01T15:18:16;20.30;;;10.15;;
76761;SDS011;65705;51.032;13.790;2023-03-01T15:20:48;24.02;;;10.80;;
76761;SDS011;65705;51.032;13.790;2023-03-01T15:23:19;22.58;;;9.85;;
76761;SDS011;65705;51.032;13.790;2023-03-01T15:25:48;21.45;;;10.27;;
76761;SDS011;65705;51.032;13.790;2023-03-01T15:30:55;22.58;;;9.98;;
76761;SDS011;65705;51.032;13.790;2023-03-01T15:33:31;20.33;;;10.02;;
76761;SDS011;65705;51.032;13.790;2023-03-01T15:35:59;25.88;;;10.23;;
76761;SDS011;65705;51.032;13.790;2023-03-01T15:38:49;21.05;;;10.00;;
76761;SDS011;65705;51.032;13.790;2023-03-01T15:41:26;19.17;;;9.30;;
76761;SDS011;65705;51.032;13.790;2023-03-01T15:43:56;23.33;;;9.30;;
76761;SDS011;65705;51.032;13.790;2023-03-01T15:46:39;17.58;;;8.38;;
76761;SDS011;65705;51.032;13.790;2023-03-01T15:49:06;19.13;;;9.27;;
76761;SDS011;65705;51.032;13.790;2023-03-01T15:51:45;18.95;;;9.00;;
76761;SDS011;65705;51.032;13.790;2023-03-01T15:54:16;25.50;;;9.95;;
76761;SDS011;65705;51.032;13.790;2023-03-01T15:56:45;18.02;;;8.77;;
76761;SDS011;65705;51.032;13.790;2023-03-01T15:59:11;21.45;;;9.48;;
76761;SDS011;65705;51.032;13.790;2023-03-01T16:01:38;18.95;;;8.98;;
76761;SDS011;65705;51.032;13.790;2023-03-01T16:04:04;18.08;;;8.07;;
76761;SDS011;65705;51.032;13.790;2023-03-01T16:06:29;19.17;;;9.52;;
76761;SDS011;65705;51.032;13.790;2023-03-01T16:08:55;17.40;;;8.63;;
76761;SDS011;65705;51.032;13.790;2023-03-01T16:11:21;19.52;;;9.05;;
76761;SDS011;65705;51.032;13.790;2023-03-01T16:13:47;20.17;;;8.73;;
76761;SDS011;65705;51.032;13.790;2023-03-01T16:16:14;16.60;;;8.25;;
76761;SDS011;65705;51.032;13.790;2023-03-01T16:18:42;17.38;;;8.30;;
76761;SDS011;65705;51.032;13.790;2023-03-01T16:21:11;24.17;;;11.73;;
76761;SDS011;65705;51.032;13.790;2023-03-01T16:23:39;22.50;;;9.68;;
76761;SDS011;65705;51.032;13.790;2023-03-01T16:26:04;20.02;;;10.02;;
76761;SDS011;65705;51.032;13.790;2023-03-01T16:28:30;19.42;;;8.32;;
76761;SDS011;65705;51.032;13.790;2023-03-01T16:30:56;22.50;;;8.70;;
76761;SDS011;65705;51.032;13.790;2023-03-01T16:33:21;17.83;;;8.45;;
76761;SDS011;65705;51.032;13.790;2023-03-01T16:35:47;20.55;;;9.00;;
76761;SDS011;65705;51.032;13.790;2023-03-01T16:38:13;18.35;;;8.88;;
76761;SDS011;65705;51.032;13.790;2023-03-01T16:40:38;22.33;;;9.45;;
76761;SDS011;65705;51.032;13.790;2023-03-01T16:43:04;20.02;;;10.13;;
76761;SDS011;65705;51.032;13.790;2023-03-01T16:45:51;24.17;;;10.25;;
76761;SDS011;65705;51.032;13.790;2023-03-01T16:48:17;22.90;;;9.93;;
76761;SDS011;65705;51.032;13.790;2023-03-01T16:50:43;22.67;;;10.88;;